Ext Alta Vista, Puerto Rico
Current Conditions -  °F | °C
As of 10:50 AM on Saturday 22 Nov 2014 (Local Time) from TJBQ Reporting Station
Broken Clouds Broken Clouds  
Wind Chill: 79°   Ceiling: 11000
Heat Index: 82°   Visibility: 10mi
Dew Point: 73°   Wind: 13mph
Humidity: 83%   Direction: 100°E
Pressure: 30.06"   Gusts: 21mph
Location:  18.0093°N, 66.6209°W
Report Text: TJBQ 221450Z 10011G18KT 10SM SCT014 SCT090 BKN110 26/23 A3006 RMK RWY08 ATIS R
Loading
Personal Weather Stations






























Interactive Weather Map New forecast layout! Learn more

10-Day Weather Forecast

Advertisements
Track Severe Weather on mobile